createdAt,value
2019-03-16T00:01:41.112Z,99.90
2019-03-16T00:04:07.957Z,99.90
2019-03-16T00:06:34.799Z,99.90
2019-03-16T00:09:01.643Z,99.90
2019-03-16T00:11:28.490Z,99.90
2019-03-16T00:13:55.340Z,99.90
2019-03-16T00:16:22.173Z,99.90
2019-03-16T00:18:49.016Z,99.90
2019-03-16T00:21:15.859Z,99.90
2019-03-16T00:23:42.702Z,99.90
2019-03-16T00:26:09.284Z,99.90
2019-03-16T00:28:36.084Z,99.90
2019-03-16T00:31:02.926Z,99.90
2019-03-16T00:33:29.770Z,99.90
2019-03-16T00:35:56.615Z,99.90
2019-03-16T00:38:23.684Z,99.90
2019-03-16T00:40:50.607Z,99.90
2019-03-16T00:43:17.450Z,99.90
2019-03-16T00:45:45.668Z,99.70
2019-03-16T00:48:12.366Z,99.80
2019-03-16T00:50:39.209Z,99.30
2019-03-16T00:53:06.053Z,99.30
2019-03-16T00:55:32.588Z,99.10
2019-03-16T00:57:59.443Z,98.60
2019-03-16T01:00:26.277Z,99.00
2019-03-16T01:02:53.120Z,98.90
2019-03-16T01:05:19.962Z,98.60
2019-03-16T01:07:46.548Z,98.00
2019-03-16T01:10:13.649Z,98.10
2019-03-16T01:12:40.492Z,98.40
2019-03-16T01:15:08.258Z,98.80
2019-03-16T01:17:35.101Z,97.60
2019-03-16T01:20:01.946Z,97.60
2019-03-16T01:22:28.788Z,97.40
2019-03-16T01:24:55.644Z,97.30
2019-03-16T01:27:22.476Z,96.70
2019-03-16T01:29:49.319Z,96.30
2019-03-16T01:32:16.162Z,96.20
2019-03-16T01:34:44.139Z,96.40
2019-03-16T01:37:11.077Z,96.70
2019-03-16T01:39:37.924Z,96.80
2019-03-16T01:42:04.764Z,96.50
2019-03-16T01:44:31.614Z,96.60
2019-03-16T01:46:58.450Z,96.60
2019-03-16T01:49:25.295Z,96.60
2019-03-16T01:51:52.139Z,96.80
2019-03-16T01:54:18.980Z,96.90
2019-03-16T01:56:45.824Z,96.80
2019-03-16T01:59:12.404Z,97.00
2019-03-16T02:01:39.204Z,97.30
2019-03-16T02:04:05.784Z,97.00
2019-03-16T02:06:32.584Z,97.40
2019-03-16T02:08:59.427Z,97.60
2019-03-16T02:11:26.272Z,97.40
2019-03-16T02:13:53.114Z,97.60
2019-03-16T02:16:19.957Z,97.80
2019-03-16T02:18:46.801Z,98.10
2019-03-16T02:21:13.644Z,97.70
2019-03-16T02:23:40.487Z,98.10
2019-03-16T02:26:07.332Z,98.30
2019-03-16T02:28:34.174Z,98.60
2019-03-16T02:31:01.020Z,98.60
2019-03-16T02:33:27.862Z,98.50
2019-03-16T02:35:54.397Z,99.30
2019-03-16T02:38:21.243Z,99.10
2019-03-16T02:40:48.090Z,99.30
2019-03-16T02:43:14.928Z,99.80
2019-03-16T02:45:41.773Z,99.20
2019-03-16T02:48:08.615Z,99.20
2019-03-16T02:50:36.382Z,99.50
2019-03-16T02:53:03.226Z,99.90
2019-03-16T02:55:30.067Z,99.90
2019-03-16T02:57:56.909Z,99.90
2019-03-16T03:00:23.536Z,99.90
2019-03-16T03:02:50.409Z,99.90
2019-03-16T03:05:17.133Z,99.90
2019-03-16T03:07:43.976Z,99.90
2019-03-16T03:10:12.049Z,99.90
2019-03-16T03:12:38.631Z,99.90
2019-03-16T03:15:06.117Z,99.90
2019-03-16T03:17:32.886Z,99.90
2019-03-16T03:19:59.422Z,99.90
2019-03-16T03:22:25.960Z,99.90
2019-03-16T03:24:52.495Z,99.90
2019-03-16T03:27:19.340Z,99.90
2019-03-16T03:29:46.189Z,99.90
2019-03-16T03:32:13.029Z,99.90
2019-03-16T03:34:39.869Z,99.90
2019-03-16T03:37:06.712Z,99.90
2019-03-16T03:39:33.558Z,99.90
2019-03-16T03:42:00.196Z,99.90
2019-03-16T03:44:26.935Z,99.90
2019-03-16T03:46:53.786Z,99.90
2019-03-16T03:49:20.623Z,99.90
2019-03-16T03:51:47.773Z,99.90
2019-03-16T03:54:14.617Z,99.90
2019-03-16T03:56:41.250Z,99.90
2019-03-16T03:59:07.937Z,99.90
2019-03-16T04:01:34.532Z,99.90
2019-03-16T04:04:14.184Z,99.90
2019-03-16T04:06:29.448Z,99.90
2019-03-16T04:08:56.291Z,99.90
2019-03-16T04:11:23.166Z,99.90
2019-03-16T04:13:49.991Z,99.90
2019-03-16T04:16:16.823Z,99.90
2019-03-16T04:18:43.665Z,99.90
2019-03-16T04:21:10.508Z,99.90
2019-03-16T04:23:37.352Z,99.90
2019-03-16T04:26:04.196Z,99.90
2019-03-16T04:28:31.040Z,99.90
2019-03-16T04:30:57.882Z,99.90
2019-03-16T04:33:24.725Z,99.90
2019-03-16T04:35:51.569Z,99.90
2019-03-16T04:38:18.415Z,99.90
2019-03-16T04:40:44.993Z,99.90
2019-03-16T04:43:11.791Z,99.90
2019-03-16T04:45:38.635Z,99.90
2019-03-16T04:48:05.477Z,99.90
2019-03-16T04:50:32.323Z,99.90
2019-03-16T04:52:59.166Z,99.90
2019-03-16T04:55:26.018Z,99.90
2019-03-16T04:57:52.852Z,99.90
2019-03-16T05:00:19.700Z,99.90
2019-03-16T05:02:46.539Z,99.90
2019-03-16T05:05:13.395Z,99.90
2019-03-16T05:07:39.964Z,99.90
2019-03-16T05:10:08.011Z,99.90
2019-03-16T05:12:34.835Z,99.90
2019-03-16T05:15:01.678Z,99.90
2019-03-16T05:17:28.521Z,99.90
2019-03-16T05:19:55.377Z,99.90
2019-03-16T05:22:22.208Z,99.90
2019-03-16T05:24:49.052Z,99.90
2019-03-16T05:27:15.894Z,99.90
2019-03-16T05:29:42.738Z,99.90
2019-03-16T05:32:09.582Z,99.90
2019-03-16T05:34:36.120Z,99.90
2019-03-16T05:37:02.704Z,99.90
2019-03-16T05:39:29.239Z,99.90
2019-03-16T05:41:56.047Z,99.90
2019-03-16T05:44:22.881Z,99.90
2019-03-16T05:46:49.720Z,99.90
2019-03-16T05:49:16.256Z,99.90
2019-03-16T05:51:43.102Z,99.90
2019-03-16T05:54:09.943Z,99.90
2019-03-16T05:56:36.786Z,99.90
2019-03-16T05:59:03.323Z,99.90
2019-03-16T06:01:29.859Z,99.90
2019-03-16T06:03:56.702Z,99.90
2019-03-16T06:06:23.288Z,99.90
2019-03-16T06:08:50.082Z,99.90
2019-03-16T06:11:16.925Z,99.90
2019-03-16T06:13:43.775Z,99.90
2019-03-16T06:16:10.612Z,99.90
2019-03-16T06:18:37.455Z,99.90
2019-03-16T06:21:04.306Z,99.90
2019-03-16T06:23:31.142Z,99.90
2019-03-16T06:25:57.989Z,99.90
2019-03-16T06:28:24.830Z,99.90
2019-03-16T06:30:51.672Z,99.90
2019-03-16T06:33:18.516Z,99.90
2019-03-16T06:35:45.096Z,99.90
2019-03-16T06:38:11.680Z,99.90
2019-03-16T06:40:38.433Z,99.90
2019-03-16T06:43:05.279Z,99.90
2019-03-16T06:45:32.120Z,99.90
2019-03-16T06:47:58.962Z,99.90
2019-03-16T06:50:25.547Z,99.90
2019-03-16T06:52:52.341Z,99.90
2019-03-16T06:55:19.186Z,99.90
2019-03-16T06:57:46.029Z,99.90
2019-03-16T07:00:16.296Z,99.90
2019-03-16T07:02:43.101Z,99.90
2019-03-16T07:05:10.859Z,99.90
2019-03-16T07:07:37.722Z,99.90
2019-03-16T07:10:06.399Z,99.90
2019-03-16T07:12:34.834Z,99.90
2019-03-16T07:15:01.306Z,99.90
2019-03-16T07:17:28.071Z,99.90
2019-03-16T07:19:54.685Z,99.90
2019-03-16T07:22:21.528Z,99.90
2019-03-16T07:24:51.425Z,99.90
2019-03-16T07:27:25.698Z,99.90
2019-03-16T07:29:44.823Z,99.90
2019-03-16T07:32:11.667Z,99.90
2019-03-16T07:34:38.248Z,99.90
2019-03-16T07:37:05.046Z,99.90
2019-03-16T07:39:31.889Z,99.90
2019-03-16T07:42:00.545Z,99.90
2019-03-16T07:44:26.808Z,99.90
2019-03-16T07:46:53.651Z,99.90
2019-03-16T07:49:20.493Z,99.90
2019-03-16T07:51:47.336Z,99.90
2019-03-16T07:54:14.186Z,99.90
2019-03-16T07:56:41.023Z,99.90
2019-03-16T07:59:07.866Z,99.90
2019-03-16T08:01:34.711Z,99.90
2019-03-16T08:04:01.292Z,99.90
2019-03-16T08:06:28.088Z,99.90
2019-03-16T08:08:54.677Z,99.90
2019-03-16T08:11:21.471Z,99.90
2019-03-16T08:13:48.314Z,99.90
2019-03-16T08:16:15.202Z,99.90
2019-03-16T08:18:42.003Z,99.90
2019-03-16T08:21:08.843Z,99.90
2019-03-16T08:23:35.686Z,99.90
2019-03-16T08:26:02.530Z,99.90
2019-03-16T08:28:29.372Z,99.90
2019-03-16T08:30:56.954Z,99.90
2019-03-16T08:33:23.674Z,99.90
2019-03-16T08:35:50.517Z,99.90
2019-03-16T08:38:17.361Z,99.90
2019-03-16T08:40:44.203Z,99.90
2019-03-16T08:43:11.048Z,99.90
2019-03-16T08:45:37.891Z,99.90
2019-03-16T08:48:04.428Z,99.90
2019-03-16T08:50:31.270Z,99.90
2019-03-16T08:52:58.114Z,99.90
2019-03-16T08:55:24.957Z,99.90
2019-03-16T08:57:51.800Z,99.90
2019-03-16T09:00:18.644Z,99.90
2019-03-16T09:02:45.488Z,99.90
2019-03-16T09:05:12.330Z,99.90
2019-03-16T09:07:39.175Z,99.90
2019-03-16T09:10:06.676Z,99.90
2019-03-16T09:12:33.476Z,99.90
2019-03-16T09:15:00.370Z,99.90
2019-03-16T09:17:27.162Z,99.90
2019-03-16T09:19:54.009Z,99.90
2019-03-16T09:22:20.849Z,99.90
2019-03-16T09:24:47.692Z,99.90
2019-03-16T09:27:14.537Z,99.90
2019-03-16T09:29:41.379Z,99.90
2019-03-16T09:32:07.960Z,99.90
2019-03-16T09:34:34.760Z,99.90
2019-03-16T09:37:01.603Z,98.90
2019-03-16T09:39:28.187Z,99.00
2019-03-16T09:41:54.984Z,99.90
2019-03-16T09:44:21.825Z,97.90
2019-03-16T09:46:48.669Z,98.90
2019-03-16T09:49:15.514Z,98.80
2019-03-16T09:51:42.358Z,98.90
2019-03-16T09:54:09.264Z,98.00
2019-03-16T09:56:36.044Z,97.30
2019-03-16T09:59:02.885Z,98.20
2019-03-16T10:01:29.734Z,99.00
2019-03-16T10:03:56.312Z,97.50
2019-03-16T10:06:23.108Z,97.60
2019-03-16T10:08:49.952Z,99.90
2019-03-16T10:11:16.797Z,99.90
2019-03-16T10:13:43.639Z,99.90
2019-03-16T10:16:10.482Z,99.10
2019-03-16T10:18:37.330Z,97.70
2019-03-16T10:21:04.168Z,97.30
2019-03-16T10:23:31.014Z,97.00
2019-03-16T10:25:57.596Z,95.00
2019-03-16T10:28:24.398Z,95.40
2019-03-16T10:30:51.241Z,96.00
2019-03-16T10:33:18.091Z,96.20
2019-03-16T10:35:44.925Z,96.60
2019-03-16T10:38:11.766Z,94.10
2019-03-16T10:40:38.348Z,93.60
2019-03-16T10:43:05.146Z,91.80
2019-03-16T10:45:31.728Z,92.80
2019-03-16T10:47:58.264Z,91.10
2019-03-16T10:50:24.800Z,90.50
2019-03-16T10:52:51.597Z,89.40
2019-03-16T10:55:18.440Z,88.70
2019-03-16T10:57:45.024Z,89.10
2019-03-16T11:00:12.436Z,85.80
2019-03-16T11:02:39.278Z,84.80
2019-03-16T11:05:06.123Z,81.60
2019-03-16T11:07:32.966Z,84.00
2019-03-16T11:09:59.808Z,81.70
2019-03-16T11:12:26.651Z,81.40
2019-03-16T11:14:53.495Z,79.70
2019-03-16T11:17:20.076Z,80.40
2019-03-16T11:19:46.613Z,79.30
2019-03-16T11:22:13.415Z,78.20
2019-03-16T11:24:40.255Z,78.30
2019-03-16T11:27:07.098Z,77.50
2019-03-16T11:29:33.680Z,79.10
2019-03-16T11:32:00.476Z,78.10
2019-03-16T11:34:27.060Z,78.00
2019-03-16T11:36:53.858Z,79.30
2019-03-16T11:39:20.444Z,78.70
2019-03-16T11:41:46.977Z,76.60
2019-03-16T11:44:13.772Z,78.80
2019-03-16T11:46:40.615Z,75.90
2019-03-16T11:49:07.201Z,80.60
2019-03-16T11:51:33.996Z,75.50
2019-03-16T11:54:00.838Z,74.70
2019-03-16T11:56:27.686Z,73.40
2019-03-16T11:58:54.527Z,73.90
2019-03-16T12:01:21.369Z,72.40
2019-03-16T12:03:48.215Z,75.40
2019-03-16T12:06:15.056Z,72.60
2019-03-16T12:08:41.900Z,73.70
2019-03-16T12:11:08.562Z,71.70
2019-03-16T12:13:35.279Z,70.70
2019-03-16T12:16:02.126Z,70.90
2019-03-16T12:18:28.971Z,69.20
2019-03-16T12:20:55.547Z,69.00
2019-03-16T12:23:22.347Z,64.40
2019-03-16T12:25:49.191Z,64.40
2019-03-16T12:28:15.768Z,66.20
2019-03-16T12:30:42.309Z,67.00
2019-03-16T12:33:08.845Z,66.20
2019-03-16T12:35:35.342Z,64.60
2019-03-16T12:38:01.870Z,67.50
2019-03-16T12:40:28.714Z,63.70
2019-03-16T12:42:55.297Z,62.10
2019-03-16T12:45:22.093Z,63.00
2019-03-16T12:47:48.937Z,59.50
2019-03-16T12:50:15.516Z,59.50
2019-03-16T12:52:42.316Z,59.60
2019-03-16T12:55:10.695Z,59.70
2019-03-16T12:57:37.538Z,58.70
2019-03-16T13:00:11.184Z,59.40
2019-03-16T13:02:37.983Z,58.40
2019-03-16T13:05:05.135Z,58.50
2019-03-16T13:07:31.743Z,60.00
2019-03-16T13:09:58.513Z,57.90
2019-03-16T13:12:25.372Z,57.30
2019-03-16T13:14:51.940Z,56.20
2019-03-16T13:17:18.742Z,55.80
2019-03-16T13:19:45.584Z,58.40
2019-03-16T13:22:12.427Z,55.00
2019-03-16T13:24:39.271Z,57.50
2019-03-16T13:27:06.111Z,56.60
2019-03-16T13:29:32.693Z,53.90
2019-03-16T13:31:59.492Z,51.80
2019-03-16T13:34:26.354Z,51.30
2019-03-16T13:36:52.911Z,53.30
2019-03-16T13:39:22.437Z,52.90
2019-03-16T13:41:47.785Z,52.60
2019-03-16T13:44:14.628Z,53.00
2019-03-16T13:46:41.471Z,50.80
2019-03-16T13:49:08.315Z,52.50
2019-03-16T13:51:35.158Z,52.60
2019-03-16T13:54:02.002Z,52.00
2019-03-16T13:56:28.845Z,51.00
2019-03-16T13:58:55.689Z,53.00
2019-03-16T14:01:22.225Z,53.30
2019-03-16T14:03:49.068Z,55.30
2019-03-16T14:06:15.911Z,54.20
2019-03-16T14:08:42.754Z,51.20
2019-03-16T14:11:09.598Z,51.20
2019-03-16T14:13:36.446Z,52.10
2019-03-16T14:16:03.619Z,52.50
2019-03-16T14:18:30.436Z,52.80
2019-03-16T14:20:57.280Z,53.40
2019-03-16T14:23:24.122Z,53.80
2019-03-16T14:25:50.966Z,51.90
2019-03-16T14:28:18.116Z,54.20
2019-03-16T14:30:45.286Z,50.80
2019-03-16T14:33:12.111Z,52.20
2019-03-16T14:35:38.954Z,52.80
2019-03-16T14:38:05.802Z,54.20
2019-03-16T14:40:32.419Z,54.00
2019-03-16T14:42:59.178Z,51.90
2019-03-16T14:45:26.635Z,50.80
2019-03-16T14:47:53.218Z,52.10
2019-03-16T14:50:20.938Z,50.80
2019-03-16T14:52:47.520Z,51.00
2019-03-16T14:55:14.318Z,49.80
2019-03-16T14:57:41.164Z,49.70
2019-03-16T15:00:09.585Z,50.10
2019-03-16T15:02:36.385Z,48.70
2019-03-16T15:05:03.885Z,49.70
2019-03-16T15:07:30.683Z,49.20
2019-03-16T15:09:57.527Z,47.00
2019-03-16T15:12:24.109Z,47.90
2019-03-16T15:14:50.907Z,47.90
2019-03-16T15:17:17.752Z,43.50
2019-03-16T15:19:44.294Z,39.10
2019-03-16T15:22:12.135Z,34.70
2019-03-16T15:24:39.202Z,32.50
2019-03-16T15:27:06.044Z,30.10
2019-03-16T15:29:32.887Z,29.40
2019-03-16T15:31:59.468Z,28.20
2019-03-16T15:34:26.267Z,28.70
2019-03-16T15:36:53.111Z,29.10
2019-03-16T15:39:19.956Z,28.10
2019-03-16T15:41:46.798Z,27.40
2019-03-16T15:44:13.641Z,27.80
2019-03-16T15:46:40.485Z,27.90
2019-03-16T15:49:07.329Z,27.90
2019-03-16T15:51:34.173Z,27.90
2019-03-16T15:54:00.752Z,28.20
2019-03-16T15:56:27.870Z,29.60
2019-03-16T15:58:54.701Z,29.20
2019-03-16T16:01:21.288Z,29.50
2019-03-16T16:03:48.081Z,30.00
2019-03-16T16:06:14.924Z,30.20
2019-03-16T16:08:42.996Z,30.80
2019-03-16T16:11:09.533Z,32.10
2019-03-16T16:13:36.379Z,32.80
2019-03-16T16:16:03.221Z,33.00
2019-03-16T16:18:30.065Z,35.70
2019-03-16T16:20:56.909Z,35.70
2019-03-16T16:23:23.753Z,37.20
2019-03-16T16:25:50.593Z,37.80
2019-03-16T16:28:17.438Z,38.20
2019-03-16T16:30:44.280Z,38.00
2019-03-16T16:33:11.124Z,39.40
2019-03-16T16:35:37.966Z,40.50
2019-03-16T16:38:04.812Z,40.30
2019-03-16T16:40:31.654Z,40.60
2019-03-16T16:42:58.497Z,41.30
2019-03-16T16:45:25.341Z,40.70
2019-03-16T16:47:52.189Z,41.80
2019-03-16T16:50:19.643Z,41.80
2019-03-16T16:52:46.485Z,42.20
2019-03-16T16:55:13.636Z,44.20
2019-03-16T16:57:40.485Z,45.20
2019-03-16T17:00:12.145Z,43.10
2019-03-16T17:02:38.775Z,43.10
2019-03-16T17:05:05.616Z,43.20
2019-03-16T17:07:32.768Z,44.30
2019-03-16T17:09:59.613Z,45.50
2019-03-16T17:12:26.455Z,45.30
2019-03-16T17:14:53.299Z,45.40
2019-03-16T17:17:20.144Z,46.40
2019-03-16T17:19:46.984Z,47.20
2019-03-16T17:22:13.828Z,49.20
2019-03-16T17:24:40.407Z,48.20
2019-03-16T17:27:07.207Z,48.60
2019-03-16T17:29:34.051Z,49.40
2019-03-16T17:32:00.895Z,49.80
2019-03-16T17:34:27.743Z,53.40
2019-03-16T17:36:54.275Z,54.10
2019-03-16T17:39:21.118Z,54.80
2019-03-16T17:41:47.961Z,56.70
2019-03-16T17:44:14.807Z,57.90
2019-03-16T17:46:41.649Z,57.70
2019-03-16T17:49:08.491Z,59.10
2019-03-16T17:51:35.336Z,59.90
2019-03-16T17:54:02.179Z,61.40
2019-03-16T17:56:29.946Z,62.90
2019-03-16T17:58:56.524Z,65.60
2019-03-16T18:01:23.108Z,66.30
2019-03-16T18:03:49.859Z,67.60
2019-03-16T18:06:16.702Z,68.90
2019-03-16T18:08:43.239Z,70.50
2019-03-16T18:11:10.082Z,72.80
2019-03-16T18:13:36.925Z,73.40
2019-03-16T18:16:03.770Z,71.60
2019-03-16T18:18:30.304Z,74.00
2019-03-16T18:20:57.148Z,74.60
2019-03-16T18:23:23.728Z,75.50
2019-03-16T18:25:50.530Z,76.50
2019-03-16T18:28:17.372Z,76.80
2019-03-16T18:30:44.215Z,78.90
2019-03-16T18:33:10.819Z,80.10
2019-03-16T18:35:37.594Z,81.90
2019-03-16T18:38:04.180Z,84.30
2019-03-16T18:40:30.915Z,86.50
2019-03-16T18:42:57.510Z,86.80
2019-03-16T18:45:25.285Z,87.90
2019-03-16T18:47:52.118Z,86.80
2019-03-16T18:50:18.962Z,86.70
2019-03-16T18:52:45.544Z,87.00
2019-03-16T18:55:12.341Z,89.50
2019-03-16T18:57:39.184Z,90.10
2019-03-16T19:00:07.871Z,90.20
2019-03-16T19:02:34.715Z,90.20
2019-03-16T19:05:01.561Z,91.50
2019-03-16T19:07:28.403Z,91.80
2019-03-16T19:09:55.248Z,92.00
2019-03-16T19:12:21.829Z,91.90
2019-03-16T19:14:48.626Z,92.30
2019-03-16T19:17:15.473Z,92.50
2019-03-16T19:19:42.314Z,93.20
2019-03-16T19:22:11.528Z,94.00
2019-03-16T19:24:37.228Z,93.90
2019-03-16T19:27:04.070Z,93.90
2019-03-16T19:29:30.914Z,94.70
2019-03-16T19:31:57.757Z,94.50
2019-03-16T19:34:24.601Z,95.60
2019-03-16T19:36:51.444Z,96.30
2019-03-16T19:39:18.294Z,96.70
2019-03-16T19:41:44.869Z,96.50
2019-03-16T19:44:11.408Z,96.70
2019-03-16T19:46:38.212Z,96.40
2019-03-16T19:49:06.996Z,97.50
2019-03-16T19:51:33.166Z,98.10
2019-03-16T19:53:59.964Z,98.20
2019-03-16T19:56:26.545Z,97.50
2019-03-16T19:59:00.644Z,98.50
2019-03-16T20:01:21.415Z,99.50
2019-03-16T20:03:48.258Z,99.40
2019-03-16T20:06:25.184Z,99.90
2019-03-16T20:08:43.217Z,99.90
2019-03-16T20:11:10.017Z,99.70
2019-03-16T20:13:36.863Z,99.90
2019-03-16T20:16:03.704Z,99.90
2019-03-16T20:18:30.548Z,99.90
2019-03-16T20:20:57.391Z,99.90
2019-03-16T20:23:24.234Z,99.90
2019-03-16T20:25:51.078Z,99.90
2019-03-16T20:28:17.920Z,99.90
2019-03-16T20:30:44.764Z,99.90
2019-03-16T20:33:11.349Z,99.90
2019-03-16T20:35:38.144Z,99.90
2019-03-16T20:38:04.986Z,99.90
2019-03-16T20:40:31.569Z,99.90
2019-03-16T20:42:58.367Z,99.90
2019-03-16T20:45:25.330Z,99.90
2019-03-16T20:47:52.361Z,99.90
2019-03-16T20:50:19.207Z,99.90
2019-03-16T20:52:46.048Z,99.90
2019-03-16T20:55:12.890Z,99.90
2019-03-16T20:57:39.735Z,99.90
2019-03-16T21:00:08.073Z,99.90
2019-03-16T21:02:34.650Z,99.90
2019-03-16T21:05:01.497Z,99.90
2019-03-16T21:07:28.341Z,99.90
2019-03-16T21:09:55.181Z,99.90
2019-03-16T21:12:22.026Z,99.90
2019-03-16T21:14:48.867Z,99.90
2019-03-16T21:17:15.450Z,99.90
2019-03-16T21:19:42.246Z,99.90
2019-03-16T21:22:09.090Z,99.90
2019-03-16T21:24:35.934Z,99.90
2019-03-16T21:27:02.778Z,99.90
2019-03-16T21:29:29.621Z,99.90
2019-03-16T21:31:56.463Z,99.90
2019-03-16T21:34:23.308Z,99.90
2019-03-16T21:36:49.889Z,99.90
2019-03-16T21:39:17.144Z,99.90
2019-03-16T21:41:44.491Z,99.90
2019-03-16T21:44:11.275Z,99.90
2019-03-16T21:46:37.836Z,99.90
2019-03-16T21:49:04.984Z,99.90
2019-03-16T21:51:31.529Z,99.90
2019-03-16T21:53:58.057Z,99.90
2019-03-16T21:56:24.899Z,99.90
2019-03-16T21:58:51.746Z,99.90
2019-03-16T22:01:18.280Z,99.90
2019-03-16T22:03:44.856Z,99.90
2019-03-16T22:06:11.658Z,99.90
2019-03-16T22:08:38.501Z,99.90
2019-03-16T22:11:05.481Z,99.90
2019-03-16T22:13:32.494Z,99.90
2019-03-16T22:15:59.336Z,99.90
2019-03-16T22:18:26.181Z,99.90
2019-03-16T22:20:53.027Z,99.90
2019-03-16T22:23:19.867Z,99.90
2019-03-16T22:25:46.710Z,99.90
2019-03-16T22:28:13.526Z,99.90
2019-03-16T22:30:40.090Z,99.90
2019-03-16T22:33:06.934Z,99.90
2019-03-16T22:35:33.776Z,99.90
2019-03-16T22:38:00.362Z,99.90
2019-03-16T22:40:26.901Z,99.90
2019-03-16T22:42:53.432Z,99.90
2019-03-16T22:45:20.230Z,99.90
2019-03-16T22:47:47.072Z,99.90
2019-03-16T22:50:14.268Z,99.90
2019-03-16T22:52:41.067Z,99.90
2019-03-16T22:55:09.080Z,99.90
2019-03-16T22:57:35.673Z,99.90
2019-03-16T23:00:04.054Z,99.90
2019-03-16T23:02:30.897Z,99.90
2019-03-16T23:04:57.740Z,99.90
2019-03-16T23:07:24.583Z,99.90
2019-03-16T23:09:51.429Z,99.90
2019-03-16T23:12:18.271Z,99.90
2019-03-16T23:14:45.114Z,99.90
2019-03-16T23:17:11.957Z,99.90
2019-03-16T23:19:38.800Z,99.90
2019-03-16T23:22:05.646Z,99.90
2019-03-16T23:24:32.488Z,99.90
2019-03-16T23:26:59.335Z,99.90
2019-03-16T23:29:26.175Z,99.90
2019-03-16T23:31:53.017Z,99.90
2019-03-16T23:34:19.860Z,99.90
2019-03-16T23:36:46.788Z,99.90
2019-03-16T23:39:13.547Z,99.90
2019-03-16T23:41:40.392Z,99.90
2019-03-16T23:44:06.973Z,99.90
2019-03-16T23:46:33.770Z,99.90
2019-03-16T23:49:00.614Z,99.90
2019-03-16T23:51:27.515Z,99.90
2019-03-16T23:53:54.301Z,99.90
2019-03-16T23:56:21.144Z,99.90
2019-03-16T23:58:47.728Z,99.90
